Accueil
METAR-TAF:

METAR-TAF

Aéroports :

Saint-Etienne, France

Aéroport de Saint-Étienne-Loire

latitude: 45-32N, longitude: 004-18E, altitude: 404 m

Observation

Le bulletin a été fait il y a 24 minutes, à 20:30 UTC
Vent 3 kt de sud, variant entre sud-est et sud/sud-ouest
Température 15°C
Humidité 67%
Pression 1017 hPa
Visibilité 10 km ou plus
pas de nuages en-dessous de 1500 mètres et pas de cumulonimbus.

METAR: LFMH 242030Z AUTO 17003KT 130V200 CAVOK 15/09 Q1017

Heure: 22:54 (20:54 UTC)

Prévision

Le bulletin a été fait il y a 6 heures et 54 minutes, à 14:00 UTC
Prévision valable du 24 à 15 UTC au 25 à 15 UTC
Vent 5 kt de nord-est
Visibilité 10 km ou plus
Nuages épars à une hauteur de 5500 ft

TAF: LFMH 241400Z 2415/2515 04005KT 9999 SCT055

Observations et prévisions météorologiques de plus de 4000 aéroports (messages METAR et TAF).

Les stations disponibles sont représentées par des disques jaunes et rouges sur la carte.

Passer la souris dessus pour voir le nom de la station.

Cliquer dessus pour voir les observations et prévisions météorologiques.

Pour changer de carte: cliquez sur les boutons verts avec une croix noire pour zoomer, sur le bouton vert avec un tiret pour effectuer un zoom arrière, ou sur les flèches vertes pour les cartes adjacentes.


METAR-TAF: